Tiempo atmosférico en la estación meteorológica de Fuentes de Andalucía, Sevilla (165 m.)



Fecha
DESCASC
Temp. máxima en grados centígrados (hora)
DESCASC
Temp. mínima en grados centígrados (hora)
DESCASC
Temp. media en grados centígrados
DESCASC
Racha de viento máxima en m/sg (hora)
DESCASC
Velocidad máxima media en intervalos de 10 minutos(hora)
DESCASC
Precipitaciones diarias en mm
DESCASC
Precipitaciones de 00:00 a 06:00 en mm
DESCASC
Precipitaciones de 06:00 a 12:00 en mm
DESCASC
Precipitaciones de 12:00 a 18:00 en mm
DESCASC
Precipitaciones de 18:00 a 24:00 en mm
DESCASC
18-10-2018 17.2 (00:00) 12.2 (09:30) 14.7 18.89 (09:10) 13.33 (09:10) 8.4 0 6 2.4 0
17-10-2018 25.2 (16:40) 13.7 (08:00) 19.5 8.89 (21:40) 6.39 (21:00) 0 0 0 0 0
16-10-2018 23.1 (17:40) 14.6 (07:30) 18.9 4.17 (15:30) 2.22 (00:10) 0.8 0.6 0.2 0 0
15-10-2018 19.7 (14:20) 9.6 (08:50) 14.7 14.72 (17:20) 10 (17:20) 15.6 0 0 2.2 13.4
14-10-2018 22 (00:10) 14.1 (00:00) 18.1 14.44 (05:10) 10.56 (05:10) 9 0.6 8.4 0 0
13-10-2018 32.5 (16:50) 16.7 (00:00) 24.6 10 (18:00) 5.83 (18:50) 0 0 0 0 0
12-10-2018 29.8 (16:50) 19 (00:00) 24.4 6.67 (17:20) 5 (19:50) 0 0 0 0 0
11-10-2018 26.2 (16:10) 19.2 (04:00) 22.7 13.33 (15:40) 9.17 (15:00) 0 0 0 0 0
10-10-2018 26.3 (16:50) 17.5 (00:00) 21.9 11.94 (17:40) 7.5 (18:20) 0 0 0 0 0
09-10-2018 28.1 (15:40) 13.9 (05:50) 21 10.83 (21:30) 8.61 (21:30) 0 0 0 0 0
08-10-2018 28.7 (17:20) 13.9 (09:00) 21.3 9.17 (20:40) 6.39 (19:10) 0 0 0 0 0
07-10-2018 31.3 (17:00) 18.9 (08:30) 25.1 11.67 (19:30) 9.17 (19:30) 0 0 0 0 0
06-10-2018 33 (16:40) 15.1 (08:50) 24.1 8.06 (19:30) 6.39 (19:30) 0 0 0 0 0
05-10-2018 33.5 (17:10) 14.8 (08:00) 24.2 7.78 (12:20) 4.72 (12:00) 0 0 0 0 0
04-10-2018 33.9 (16:10) 16.2 (00:00) 25.1 6.39 (18:10) 3.89 (00:10) 0 0 0 0 0
03-10-2018 32.9 (17:10) 16 (00:00) 24.5 8.33 (14:40) 4.72 (23:30) 0 0 0 0 0
02-10-2018 34.1 (17:40) 16.1 (00:00) 25.1 9.44 (11:30) 4.72 (11:30) 0 0 0 0 0
01-10-2018 33.9 (18:10) 19 (00:00) 26.5 10 (20:00) 7.5 (20:00) 0 0 0 0 0
30-09-2018 32.8 (17:10) 19.1 (00:00) 25.9 9.17 (18:50) 6.39 (18:50) 0 0 0 0 0
29-09-2018 32.9 (16:40) 19.3 (00:00) 26.1 5.28 (20:30) 3.61 (20:30) 0 0 0 0 0
28-09-2018 32 (17:10) 19.7 (00:00) 25.9 7.78 (10:10) 4.44 (10:20) 0 0 0 0 0
27-09-2018 33 (16:40) 20 (00:00) 26.5 6.67 (19:20) 4.17 (19:30) 0 0 0 0 0
26-09-2018 33.5 (16:00) 23.1 (00:00) 28.3 14.17 (12:20) 7.5 (12:10) 0 0 0 0 0
25-09-2018 37.6 (18:10) 21.3 (00:00) 29.4 12.22 (19:00) 4.72 (16:00) 0 0 0 0 0
24-09-2018 38.6 (17:00) 21.3 (00:00) 29.9 6.94 (15:40) 4.17 (22:40) 0 0 0 0 0
23-09-2018 38.4 (17:20) 20.8 (08:30) 29.6 7.22 (16:40) 4.17 (16:20) 0 0 0 0 0
22-09-2018 38.1 (16:00) 20.3 (08:20) 29.2 6.67 (19:10) 4.17 (03:00) 0 0 0 0 0

Gráficas

Temp. máximas Temp. mínimas Temp. medias Precipitaciones Rachas de viento máximas Velocidades máximas media en intervalos de 10 minutos

Datos horarios

Fecha y hora oficial Temperatura (ºC) Velocidad del viento (km/h) Dirección del viento Racha (km/h) Dirección de racha Precipitación (mm) Presión (hPa) Tendencia (hPa) Humedad (%)
2018-10-21 23:00:00 16.8 3 Nordeste 7 Nordeste 0 -- -- 93
2018-10-21 22:00:00 17.3 4 Nordeste 7 Nordeste 0 -- -- 92
2018-10-21 21:00:00 18 5 Norte 9 Nordeste 0 -- -- 89
2018-10-21 20:00:00 18.9 0 Calma 6 Este 0 -- -- 85
2018-10-21 19:00:00 20.3 2 Este 12 Sudeste 0 -- -- 80
2018-10-21 18:00:00 20.7 6 Sudeste 12 Sudeste 0 -- -- 78
2018-10-21 17:00:00 20.3 6 Este 18 Este 0 -- -- 80
2018-10-21 16:00:00 19.6 5 Nordeste 17 Sudeste 0 -- -- 87
2018-10-21 15:00:00 17.8 8 Sudeste 21 Este 0.2 -- -- 94
2018-10-21 14:00:00 16.2 13 Este 27 Este 1.4 -- -- 95
2018-10-21 13:00:00 15.5 4 Este 15 Este 4.2 -- -- 95
2018-10-21 12:00:00 15.7 8 Sur 12 Sudoeste 4.2 -- -- 94
2018-10-21 11:00:00 15.9 3 Norte 14 Este 1.6 -- -- 95
2018-10-21 10:00:00 15.8 3 Este 13 Este 0 -- -- 95
2018-10-21 09:00:00 15.4 5 Este 14 Este 0 -- -- 95
2018-10-21 08:00:00 15.4 7 Este 13 Este 0 -- -- 94
2018-10-21 07:00:00 15.5 5 Sudeste 10 Este 0 -- -- 95
2018-10-21 06:00:00 15.4 2 Nordeste 11 Este 0.2 -- -- 95
2018-10-21 05:00:00 15.4 6 Este 15 Este 0 -- -- 95
2018-10-21 04:00:00 15.3 3 Nordeste 13 Este 0 -- -- 95
2018-10-21 03:00:00 15.6 4 Nordeste 15 Este 0 -- -- 95
2018-10-21 02:00:00 15.7 6 Este 17 Este 0.2 -- -- 95
2018-10-21 01:00:00 15.4 5 Este 12 Este 0 -- -- 95
2018-10-21 00:00:00 15.3 4 Nordeste 11 Este 0 -- -- 95
2018-10-20 23:00:00 15.1 7 Nordeste 19 Norte 0.2 -- -- 95
2018-10-20 22:00:00 14.9 9 Norte 28 Oeste 3.8 -- -- 95
2018-10-20 21:00:00 15 10 Norte 20 Noroeste 3 -- -- 94
2018-10-20 20:00:00 14.8 10 Oeste 19 Oeste 1.8 -- -- 93
2018-10-20 19:00:00 16.6 8 Norte 14 Norte 2 -- -- 90
2018-10-20 18:00:00 17.2 4 Nordeste 19 Este 0.2 -- -- 84
2018-10-20 17:00:00 18.6 8 Nordeste 25 Nordeste 0 -- -- 73
2018-10-20 16:00:00 18.3 12 Nordeste 27 Nordeste 0 -- -- 72
2018-10-20 15:00:00 18.1 11 Nordeste 24 Nordeste 0 -- -- 70
2018-10-20 14:00:00 17.2 8 Nordeste 18 Este 0 -- -- 75
2018-10-20 13:00:00 15.9 7 Nordeste 21 Nordeste 0 -- -- 80
2018-10-20 12:00:00 15.6 6 Nordeste 15 Este 0 -- -- 83
2018-10-20 11:00:00 14.8 11 Este 18 Este 0 -- -- 84
2018-10-20 10:00:00 13.4 3 Nordeste 12 Este 0 -- -- 90
2018-10-20 09:00:00 12.7 6 Nordeste 15 Nordeste 0 -- -- 92
2018-10-20 08:00:00 12.3 6 Nordeste 16 Nordeste 0 -- -- 92
2018-10-20 07:00:00 12.1 4 Nordeste 12 Norte 0 -- -- 91
2018-10-20 06:00:00 12.2 5 Nordeste 9 Nordeste 0 -- -- 89
2018-10-20 05:00:00 12.6 5 Este 12 Este 0 -- -- 87
2018-10-20 04:00:00 12.8 7 Este 12 Este 0 -- -- 86
2018-10-20 03:00:00 13 3 Este 7 Nordeste 0 -- -- 86
2018-10-20 02:00:00 12.9 3 Nordeste 9 Nordeste 0 -- -- 87
2018-10-20 01:00:00 13.7 5 Nordeste 8 Nordeste 0 -- -- 83
2018-10-20 00:00:00 14.1 4 Nordeste 8 Sudeste 0 -- -- 81
2018-10-19 23:00:00 15.1 4 Este 13 Sudeste 0 -- -- 76
2018-10-19 22:00:00 15.3 4 Este 9 Sudeste 0 -- -- 77
2018-10-19 21:00:00 16.8 6 Sudeste 12 Sudeste 0 -- -- 67
2018-10-19 20:00:00 17.7 7 Sudeste 17 Sudeste 0 -- -- 62
2018-10-19 19:00:00 19.8 10 Sudeste 23 Sudeste 0 -- -- 54
2018-10-19 18:00:00 20.4 14 Sudeste 23 Sudeste 0 -- -- 53
2018-10-19 17:00:00 21.4 7 Este 17 Este 0 -- -- 52
2018-10-19 16:00:00 21.3 7 Este 18 Este 0 -- -- 50
2018-10-19 15:00:00 20.3 7 Este 19 Nordeste 0 -- -- 55
2018-10-19 14:00:00 19.1 9 Nordeste 19 Este 0 -- -- 66
2018-10-19 13:00:00 18.1 10 Nordeste 21 Este 0 -- -- 70
2018-10-19 12:00:00 16.5 11 Este 19 Nordeste 0 -- -- 76
2018-10-19 11:00:00 14.5 12 Este 21 Este 0 -- -- 86
2018-10-19 10:00:00 12.5 6 Este 15 Este 0 -- -- 95
2018-10-19 09:00:00 11.5 11 Este 18 Este 0 -- -- 95
2018-10-19 08:00:00 11.8 5 Nordeste 13 Nordeste 0 -- -- 95
2018-10-19 07:00:00 12.1 4 Nordeste 12 Nordeste 0 -- -- 95
2018-10-19 06:00:00 12.4 5 Nordeste 12 Nordeste 0 -- -- 93
2018-10-19 05:00:00 12.6 4 Nordeste 14 Este 0 -- -- 92
2018-10-19 04:00:00 12.7 7 Este 13 Este 0 -- -- 93
2018-10-19 03:00:00 12.8 5 Este 13 Este 0 -- -- 93
2018-10-19 02:00:00 12.8 5 Nordeste 15 Norte 0 -- -- 93
2018-10-19 01:00:00 12.8 8 Nordeste 20 Nordeste 0 -- -- 93
2018-10-19 00:00:00 12.8 6 Nordeste 23 Nordeste 0 -- -- 92
2018-10-18 23:00:00 13.2 9 Nordeste 21 Este 0 -- -- 91
2018-10-18 22:00:00 13.4 7 Nordeste 20 Nordeste 0 -- -- 91
2018-10-18 21:00:00 13.5 7 Este 15 Este 0 -- -- 90
2018-10-18 20:00:00 13.8 5 Nordeste 15 Nordeste 0 -- -- 90
2018-10-18 19:00:00 14.6 7 Nordeste 19 Este 0 -- -- 87
2018-10-18 18:00:00 14.1 8 Nordeste 21 Este 0.4 -- -- 89
2018-10-18 17:00:00 14 9 Este 22 Este 0 -- -- 89
2018-10-18 16:00:00 13.9 12 Este 23 Este 0 -- -- 91
2018-10-18 15:00:00 13.8 8 Este 21 Este 0.2 -- -- 91
2018-10-18 14:00:00 13.4 10 Este 20 Sudeste 1.6 -- -- 92
2018-10-18 13:00:00 13.4 10 Sudeste 17 Sudeste 0.2 -- -- 91
2018-10-18 12:00:00 13.6 5 Este 21 Norte 0.2 -- -- 92
2018-10-18 11:00:00 12.9 17 Noroeste 28 Noroeste 0.4 -- -- 93
2018-10-18 10:00:00 12.2 23 Noroeste 68 Oeste 4.8 -- -- 94
2018-10-18 09:00:00 14.7 26 Sudoeste 48 Sudoeste 0.6 -- -- 85
2018-10-18 08:00:00 16.4 13 Este 24 Este 0 -- -- 90
2018-10-18 07:00:00 16.9 5 Este 12 Sur 0 -- -- 88
2018-10-18 06:00:00 16.7 6 Sudeste 14 Sur 0 -- -- 91
2018-10-18 05:00:00 16.8 7 Sur 13 Sur 0 -- -- 90
2018-10-18 04:00:00 16.9 6 Sur 12 Sur 0 -- -- 91
2018-10-18 03:00:00 16.7 10 Sur 15 Sur 0 -- -- 91
2018-10-18 02:00:00 16.8 9 Sur 22 Sudoeste 0 -- -- 89
2018-10-18 01:00:00 17.1 13 Sudoeste 20 Sudoeste 0 -- -- 89
2018-10-18 00:00:00 17.2 15 Sudoeste 21 Sudoeste 0 -- -- 89
2018-10-17 23:00:00 17.5 15 Sudoeste 25 Sudoeste 0 -- -- 84
2018-10-17 22:00:00 18.5 18 Sudoeste 32 Sudoeste 0 -- -- 78
2018-10-17 21:00:00 19.9 23 Sudoeste 31 Sudoeste 0 -- -- 73
2018-10-17 20:00:00 21.8 12 Oeste 18 Sudoeste 0 -- -- 58
2018-10-17 19:00:00 24.5 11 Sudoeste 16 Oeste 0 -- -- 47
2018-10-17 18:00:00 25.1 10 Oeste 19 Oeste 0 -- -- 45
2018-10-17 17:00:00 25.1 5 Noroeste 15 Noroeste 0 -- -- 45
2018-10-17 16:00:00 25 4 Sudoeste 14 Noroeste 0 -- -- 49
2018-10-17 15:00:00 23.7 3 Sur 12 Nordeste 0 -- -- 55
2018-10-17 14:00:00 22.5 5 Nordeste 14 Nordeste 0 -- -- 60
2018-10-17 13:00:00 21.2 6 Nordeste 14 Nordeste 0 -- -- 64
2018-10-17 12:00:00 19.7 5 Nordeste 15 Nordeste 0 -- -- 75
2018-10-17 11:00:00 17.7 8 Este 17 Este 0 -- -- 81
2018-10-17 10:00:00 15.2 5 Este 14 Nordeste 0 -- -- 91
2018-10-17 09:00:00 13.8 5 Nordeste 13 Nordeste 0 -- -- 91
2018-10-17 08:00:00 13.7 5 Este 8 Este 0 -- -- 91
2018-10-17 07:00:00 14.2 5 Este 7 Este 0 -- -- 89
2018-10-17 06:00:00 15 3 Este 5 Este 0 -- -- 88
2018-10-17 05:00:00 15.5 3 Este 5 Nordeste 0 -- -- 87
2018-10-17 04:00:00 15.7 3 Norte 5 Norte 0 -- -- 85
2018-10-17 03:00:00 16.5 3 Noroeste 4 Oeste 0 -- -- 80
2018-10-17 02:00:00 16.8 4 Sudoeste 7 Sur 0 -- -- 80
2018-10-17 01:00:00 17.5 6 Sur 9 Sur 0 -- -- 77
2018-10-17 00:00:00 18.2 4 Sur 7 Sudeste 0 -- -- 73
2018-10-16 23:00:00 18.1 4 Sudeste 6 Sudoeste 0 -- -- 76
2018-10-16 22:00:00 18.3 2 Noroeste 5 Norte 0 -- -- 75
2018-10-16 21:00:00 18.8 5 Norte 9 Noroeste 0 -- -- 75
2018-10-16 20:00:00 20.4 8 Norte 10 Norte 0 -- -- 68
2018-10-16 19:00:00 22.2 8 Norte 13 Norte 0 -- -- 59
2018-10-16 18:00:00 22.8 6 Norte 14 Norte 0 -- -- 56
2018-10-16 17:00:00 22.6 8 Norte 12 Norte 0 -- -- 58
2018-10-16 16:00:00 21.1 3 Nordeste 15 Nordeste 0 -- -- 62
2018-10-16 15:00:00 21.1 5 Nordeste 11 Nordeste 0 -- -- 63
2018-10-16 14:00:00 19.8 5 Nordeste 12 Norte 0 -- -- 70
2018-10-16 13:00:00 18.7 4 Nordeste 10 Norte 0 -- -- 77
2018-10-16 12:00:00 17.4 4 Nordeste 10 Nordeste 0 -- -- 83
2018-10-16 11:00:00 16 3 Nordeste 12 Este 0 -- -- 88
2018-10-16 10:00:00 14.9 5 Este 12 Nordeste 0 -- -- 95
2018-10-16 09:00:00 14.6 0 Calma 7 Nordeste 0.2 -- -- 96
2018-10-16 08:00:00 14.7 0 Calma 6 Este 0 -- -- 96
2018-10-16 07:00:00 14.7 2 Nordeste 9 Nordeste 0 -- -- 96
2018-10-16 06:00:00 14.9 3 Nordeste 9 Nordeste 0 -- -- 96
2018-10-16 05:00:00 14.8 5 Norte 10 Nordeste 0 -- -- 96
2018-10-16 04:00:00 14.8 3 Nordeste 8 Nordeste 0 -- -- 96
2018-10-16 03:00:00 15.3 6 Norte 10 Norte 0.2 -- -- 96
2018-10-16 02:00:00 15.6 5 Noroeste 10 Norte 0.4 -- -- 96
2018-10-16 01:00:00 16.1 6 Oeste 12 Sudoeste 0 -- -- 96
2018-10-16 00:00:00 16 9 Sudoeste 18 Sudoeste 0.2 -- -- 96
2018-10-15 23:00:00 16 13 Sudoeste 17 Oeste 0 -- -- 95
2018-10-15 22:00:00 15.7 7 Sur 21 Sur 0 -- -- 95
2018-10-15 21:00:00 15.5 12 Sur 37 Sur 1.2 -- -- 95
2018-10-15 20:00:00 15.3 24 Sur 36 Sur 8.8 -- -- 94
2018-10-15 19:00:00 15.5 30 Sur 45 Sur 3.2 -- -- 91
2018-10-15 18:00:00 16.1 28 Sudoeste 53 Sudoeste 2.2 -- -- 87
2018-10-15 17:00:00 18.5 29 Sudoeste 51 Sudoeste 0 -- -- 69
2018-10-15 16:00:00 19.2 32 Sudoeste 45 Sudoeste 0 -- -- 63
2018-10-15 15:00:00 18.8 30 Sudoeste 41 Sudoeste 0 -- -- 70
2018-10-15 14:00:00 18.8 22 Sudoeste 32 Sudoeste 0 -- -- 63
2018-10-15 13:00:00 16.7 17 Sudoeste 32 Sudoeste 0 -- -- 66
2018-10-15 12:00:00 15.4 19 Sudoeste 24 Sudoeste 0 -- -- 70
2018-10-15 11:00:00 13.2 14 Sudoeste 17 Sudoeste 0 -- -- 82
2018-10-15 10:00:00 10.5 14 Sur 18 Sur 0 -- -- 88
2018-10-15 09:00:00 9.6 12 Sudoeste 15 Sudoeste 0 -- -- 89
2018-10-15 08:00:00 9.8 6 Sudoeste 18 Sudoeste 0 -- -- 88
2018-10-15 07:00:00 10 14 Sudoeste 19 Sudoeste 0 -- -- 87
2018-10-15 06:00:00 10.6 10 Sudoeste 13 Sudoeste 0 -- -- 83
2018-10-15 05:00:00 11.6 8 Sur 10 Sur 0 -- -- 78
2018-10-15 04:00:00 12.5 5 Oeste 10 Noroeste 0 -- -- 75
2018-10-15 03:00:00 12.9 4 Noroeste 16 Noroeste 0 -- -- 74
2018-10-15 02:00:00 13.5 13 Noroeste 20 Oeste 0 -- -- 71
2018-10-15 01:00:00 13.5 12 Oeste 16 Oeste 0 -- -- 73
2018-10-15 00:00:00 14.1 9 Oeste 18 Oeste 0 -- -- 69
2018-10-14 23:00:00 15 13 Oeste 22 Oeste 0 -- -- 65
2018-10-14 22:00:00 15.6 15 Oeste 22 Noroeste 0 -- -- 63
2018-10-14 21:00:00 16.3 13 Noroeste 21 Noroeste 0 -- -- 59
2018-10-14 20:00:00 17.6 17 Noroeste 28 Noroeste 0 -- -- 54
2018-10-14 19:00:00 19.4 20 Noroeste 30 Noroeste 0 -- -- 47
2018-10-14 18:00:00 20.2 20 Noroeste 28 Noroeste 0 -- -- 46
2018-10-14 17:00:00 20.8 19 Noroeste 36 Noroeste 0 -- -- 45
2018-10-14 16:00:00 20.2 22 Noroeste 40 Noroeste 0 -- -- 46
2018-10-14 15:00:00 19.4 28 Noroeste 51 Noroeste 0 -- -- 52
2018-10-14 14:00:00 18.6 22 Oeste 45 Oeste 0 -- -- 60
2018-10-14 13:00:00 17.4 29 Noroeste 41 Oeste 0 -- -- 64
2018-10-14 12:00:00 17.3 25 Noroeste 36 Noroeste 0 -- -- 71
2018-10-14 11:00:00 16.2 15 Noroeste 33 Oeste 0 -- -- 82
2018-10-14 10:00:00 15.9 17 Oeste 29 Oeste 0 -- -- 87
2018-10-14 09:00:00 15.9 22 Oeste 31 Oeste 0.4 -- -- 92
2018-10-14 08:00:00 16.6 23 Oeste 35 Sudoeste 2.6 -- -- 94
2018-10-14 07:00:00 17.5 20 Oeste 30 Oeste 5.4 -- -- 93
2018-10-14 06:00:00 18.5 15 Oeste 52 Sudoeste 0.6 -- -- 87
2018-10-14 05:00:00 20.6 30 Sudoeste 48 Sudoeste 0 -- -- 70
2018-10-14 04:00:00 19.2 15 Oeste 23 Sudoeste 0 -- -- 72
2018-10-14 03:00:00 19.1 6 Noroeste 14 Oeste 0 -- -- 68
2018-10-14 02:00:00 20.8 7 Sudeste 22 Sur 0 -- -- 65
2018-10-14 01:00:00 21.7 12 Sur 16 Sur 0 -- -- 64
2018-10-14 00:00:00 21.7 8 Sudoeste 13 Sudoeste 0 -- -- 63
2018-10-13 23:00:00 22.7 2 Este 12 Sudeste 0 -- -- 55
2018-10-13 22:00:00 24.4 8 Sudoeste 14 Oeste 0 -- -- 50
2018-10-13 21:00:00 25.6 11 Oeste 18 Oeste 0 -- -- 47
2018-10-13 20:00:00 27.9 16 Oeste 27 Oeste 0 -- -- 43
2018-10-13 19:00:00 30.4 21 Oeste 30 Sudoeste 0 -- -- 37
2018-10-13 18:00:00 32.1 15 Oeste 36 Sudoeste 0 -- -- 32
2018-10-13 17:00:00 32.4 14 Sudoeste 28 Sudoeste 0 -- -- 30
2018-10-13 16:00:00 32 14 Sudoeste 26 Sudoeste 0 -- -- 28
2018-10-13 15:00:00 31.3 8 Sudoeste 21 Sudoeste 0 -- -- 28
2018-10-13 14:00:00 30.7 3 Sudeste 16 Sudeste 0 -- -- 31
2018-10-13 13:00:00 29.6 8 Sudeste 24 Este 0 -- -- 33
2018-10-13 12:00:00 27.5 10 Sudeste 22 Este 0 -- -- 39
2018-10-13 11:00:00 25 12 Sudeste 21 Sudeste 0 -- -- 44
2018-10-13 10:00:00 19.8 8 Este 13 Este 0 -- -- 68
2018-10-13 09:00:00 17.2 10 Este 15 Este 0 -- -- 79
2018-10-13 08:00:00 16.9 4 Nordeste 15 Este 0 -- -- 79
2018-10-13 07:00:00 16.9 8 Este 16 Este 0 -- -- 79
2018-10-13 06:00:00 17.8 6 Este 16 Este 0 -- -- 75
2018-10-13 05:00:00 18.4 9 Este 16 Este 0 -- -- 76
2018-10-13 04:00:00 18.5 5 Este 11 Este 0 -- -- 77
2018-10-13 03:00:00 19.4 7 Este 13 Este 0 -- -- 76
2018-10-13 02:00:00 20.4 5 Este 8 Este 0 -- -- 76
2018-10-13 01:00:00 21.2 4 Nordeste 5 Nordeste 0 -- -- 74
2018-10-13 00:00:00 22.1 4 Norte 8 Norte 0 -- -- 72
2018-10-12 23:00:00 22.7 5 Norte 10 Norte 0 -- -- 69
2018-10-12 22:00:00 23.3 6 Norte 12 Noroeste 0 -- -- 67
2018-10-12 21:00:00 24.2 10 Norte 22 Noroeste 0 -- -- 63
2018-10-12 20:00:00 25.6 18 Noroeste 23 Noroeste 0 -- -- 60
2018-10-12 19:00:00 27.7 11 Norte 24 Norte 0 -- -- 51
2018-10-12 18:00:00 28.8 3 Noroeste 24 Noroeste 0 -- -- 46
2018-10-12 17:00:00 29.6 7 Noroeste 17 Sudoeste 0 -- -- 44
2018-10-12 16:00:00 28.4 4 Sudeste 13 Oeste 0 -- -- 47
2018-10-12 15:00:00 28 5 Oeste 15 Sudoeste 0 -- -- 48
2018-10-12 14:00:00 26.5 4 Oeste 18 Oeste 0 -- -- 53
2018-10-12 13:00:00 25.8 5 Oeste 11 Sudoeste 0 -- -- 57
2018-10-12 12:00:00 24.4 5 Sudoeste 11 Sudoeste 0 -- -- 62
2018-10-12 11:00:00 22.7 5 Sur 11 Sudoeste 0 -- -- 66
2018-10-12 10:00:00 20.2 4 Sudoeste 8 Sudeste 0 -- -- 71
2018-10-12 09:00:00 19.1 3 Sudeste 13 Sudeste 0 -- -- 74
2018-10-12 08:00:00 19.5 8 Sudeste 12 Sudeste 0 -- -- 72
2018-10-12 07:00:00 19.6 6 Sudeste 14 Sudeste 0 -- -- 72
2018-10-12 06:00:00 19.6 8 Sudeste 17 Sur 0 -- -- 74
2018-10-12 05:00:00 19.5 8 Sudeste 15 Sudeste 0 -- -- 75
2018-10-12 04:00:00 19.8 7 Sur 14 Sur 0 -- -- 79
2018-10-12 03:00:00 19.7 7 Sudeste 18 Sur 0 -- -- 78
2018-10-12 02:00:00 20 8 Sur 17 Sudoeste 0 -- -- 77
2018-10-12 01:00:00 20.5 13 Sur 18 Sur 0 -- -- 76
2018-10-12 00:00:00 20.4 13 Sur 22 Sudoeste 0 -- -- 77
2018-10-11 23:00:00 21.1 19 Sudoeste 33 Sudoeste 0 -- -- 75
2018-10-11 22:00:00 21.6 22 Sudoeste 36 Sudoeste 0 -- -- 72
2018-10-11 21:00:00 22.1 23 Sudoeste 37 Sudoeste 0 -- -- 69
2018-10-11 20:00:00 22.7 27 Sudoeste 48 Sudoeste 0 -- -- 65
2018-10-11 19:00:00 23.7 28 Sudoeste 45 Sudoeste 0 -- -- 60
2018-10-11 18:00:00 25.3 30 Sudoeste 48 Sudoeste 0 -- -- 53
2018-10-11 17:00:00 25.9 30 Sudoeste 41 Sudoeste 0 -- -- 51
2018-10-11 16:00:00 26 29 Sudoeste 48 Sudoeste 0 -- -- 51
2018-10-11 15:00:00 25.6 33 Sudoeste 46 Sudoeste 0 -- -- 55
2018-10-11 14:00:00 22.5 29 Sudoeste 41 Sudoeste 0 -- -- 73
2018-10-11 13:00:00 22.9 22 Sudoeste 35 Sudoeste 0 -- -- 70
2018-10-11 12:00:00 21.7 25 Sudoeste 41 Sudoeste 0 -- -- 73
2018-10-11 11:00:00 19.9 17 Sudoeste 27 Sur 0 -- -- 84
2018-10-11 10:00:00 20.9 13 Sur 22 Sur 0 -- -- 73
2018-10-11 09:00:00 20.6 7 Sudeste 13 Sudeste 0 -- -- 72
2018-10-11 08:00:00 20.1 4 Este 11 Este 0 -- -- 72
2018-10-11 07:00:00 20.2 6 Sudeste 12 Sudeste 0 -- -- 72
2018-10-11 06:00:00 20 6 Sudeste 12 Este 0 -- -- 75
2018-10-11 05:00:00 19.6 4 Este 9 Sudeste 0 -- -- 76
2018-10-11 04:00:00 19.2 3 Este 9 Este 0 -- -- 77
2018-10-11 03:00:00 19.8 6 Sudeste 9 Este 0 -- -- 78
2018-10-11 02:00:00 19.9 5 Sur 9 Sudoeste 0 -- -- 79
2018-10-11 01:00:00 19.7 5 Sudoeste 9 Oeste 0 -- -- 81
2018-10-11 00:00:00 19.6 6 Oeste 18 Sudoeste 0 -- -- 77
2018-10-10 23:00:00 20.4 13 Sudoeste 19 Sudoeste 0 -- -- 75
2018-10-10 22:00:00 21.3 14 Sudoeste 23 Sudoeste 0 -- -- 71
2018-10-10 21:00:00 22.4 19 Oeste 28 Sudoeste 0 -- -- 68
2018-10-10 20:00:00 23.1 19 Sudoeste 32 Sudoeste 0 -- -- 61
2018-10-10 19:00:00 24.7 25 Sudoeste 39 Sudoeste 0 -- -- 55
2018-10-10 18:00:00 25.4 26 Sudoeste 43 Sudoeste 0 -- -- 54
2018-10-10 17:00:00 26.2 16 Sudoeste 38 Sudoeste 0 -- -- 51
2018-10-10 16:00:00 25.7 16 Sudoeste 31 Sudoeste 0 -- -- 53
2018-10-10 15:00:00 24.7 14 Sudoeste 27 Oeste 0 -- -- 55
2018-10-10 14:00:00 25.3 19 Sudoeste 30 Sudoeste 0 -- -- 52
2018-10-10 13:00:00 23.6 19 Sudoeste 34 Sur 0 -- -- 61
2018-10-10 12:00:00 22.5 12 Sur 18 Sur 0 -- -- 68
2018-10-10 11:00:00 21 6 Sudoeste 12 Sudoeste 0 -- -- 73
2018-10-10 10:00:00 18.8 4 Sudeste 8 Sudeste 0 -- -- 76
2018-10-10 09:00:00 17.6 5 Sudeste 12 Este 0 -- -- 80
2018-10-10 08:00:00 18.1 3 Este 8 Sudeste 0 -- -- 80
2018-10-10 07:00:00 18.4 6 Sudeste 13 Sudeste 0 -- -- 80
2018-10-10 06:00:00 18.6 4 Nordeste 6 Este 0 -- -- 84
2018-10-10 05:00:00 18.4 4 Este 8 Este 0 -- -- 85
2018-10-10 04:00:00 18 2 Nordeste 4 Sudeste 0 -- -- 84
2018-10-10 03:00:00 18.7 3 Sudeste 6 Este 0 -- -- 82
2018-10-10 02:00:00 18.8 2 Sur 8 Sur 0 -- -- 81
2018-10-10 01:00:00 19 8 Sur 15 Sudoeste 0 -- -- 79
2018-10-10 00:00:00 19.8 13 Sudoeste 25 Sudoeste 0 -- -- 77
2018-10-09 23:00:00 20.6 21 Sudoeste 33 Sudoeste 0 -- -- 74
2018-10-09 22:00:00 22 26 Sudoeste 39 Sudoeste 0 -- -- 67
2018-10-09 21:00:00 24.1 26 Sudoeste 35 Sudoeste 0 -- -- 49
2018-10-09 20:00:00 25.2 12 Oeste 22 Oeste 0 -- -- 46
2018-10-09 19:00:00 26 15 Oeste 25 Oeste 0 -- -- 42
2018-10-09 18:00:00 27.2 14 Oeste 28 Oeste 0 -- -- 40
2018-10-09 17:00:00 27.7 16 Oeste 29 Oeste 0 -- -- 40
2018-10-09 16:00:00 28 12 Sudoeste 28 Sudoeste 0 -- -- 38
2018-10-09 15:00:00 27.2 13 Oeste 28 Oeste 0 -- -- 40
2018-10-09 14:00:00 26.5 9 Sudoeste 28 Noroeste 0 -- -- 44
2018-10-09 13:00:00 25.8 5 Sur 15 Este 0 -- -- 47
2018-10-09 12:00:00 23.9 7 Este 15 Este 0 -- -- 50
2018-10-09 11:00:00 20.6 6 Nordeste 15 Nordeste 0 -- -- 50
2018-10-09 10:00:00 17.7 5 Nordeste 10 Este 0 -- -- 69
2018-10-09 09:00:00 14.5 8 Este 10 Este 0 -- -- 78
2018-10-09 08:00:00 13.9 4 Nordeste 12 Nordeste 0 -- -- 84
2018-10-09 07:00:00 14.6 2 Este 9 Este 0 -- -- 84
2018-10-09 06:00:00 13.9 4 Este 8 Sudeste 0 -- -- 82
2018-10-09 05:00:00 14.9 3 Este 11 Sudeste 0 -- -- 80
2018-10-09 04:00:00 16.5 6 Sur 9 Sur 0 -- -- 80
2018-10-09 03:00:00 17.2 5 Sur 16 Sur 0 -- -- 78
2018-10-09 02:00:00 17.6 5 Sur 7 Sur 0 -- -- 76
2018-10-09 01:00:00 17.9 4 Sur 13 Sudoeste 0 -- -- 73
2018-10-09 00:00:00 17.9 12 Sudoeste 16 Sudoeste 0 -- -- 69
2018-10-08 23:00:00 19.2 9 Oeste 22 Oeste 0 -- -- 64
2018-10-08 22:00:00 20.5 15 Oeste 26 Sudoeste 0 -- -- 59
2018-10-08 21:00:00 22.2 17 Sudoeste 33 Sudoeste 0 -- -- 49
2018-10-08 20:00:00 24.4 23 Sudoeste 32 Sudoeste 0 -- -- 40
2018-10-08 19:00:00 27 17 Oeste 31 Oeste 0 -- -- 36
2018-10-08 18:00:00 28.1 19 Oeste 32 Oeste 0 -- -- 38
2018-10-08 17:00:00 28.3 14 Oeste 29 Oeste 0 -- -- 35
2018-10-08 16:00:00 28 12 Oeste 28 Oeste 0 -- -- 37
2018-10-08 15:00:00 27.4 14 Oeste 26 Oeste 0 -- -- 39
2018-10-08 14:00:00 26 12 Oeste 19 Oeste 0 -- -- 45
2018-10-08 13:00:00 24.4 5 Oeste 14 Oeste 0 -- -- 51
2018-10-08 12:00:00 23.6 3 Este 11 Nordeste 0 -- -- 52
2018-10-08 11:00:00 20.7 5 Nordeste 10 Este 0 -- -- 54
2018-10-08 10:00:00 16.9 7 Este 12 Este 0 -- -- 67
2018-10-08 09:00:00 13.9 6 Este 12 Nordeste 0 -- -- 70
2018-10-08 08:00:00 14.7 4 Este 10 Nordeste 0 -- -- 72
2018-10-08 07:00:00 16.3 7 Nordeste 10 Nordeste 0 -- -- 85
2018-10-08 06:00:00 16.8 3 Nordeste 8 Sudoeste 0 -- -- 81
2018-10-08 05:00:00 17.9 6 Sudoeste 10 Sur 0 -- -- 77
2018-10-08 04:00:00 17.9 8 Sudoeste 14 Sudoeste 0 -- -- 76
2018-10-08 03:00:00 17.9 10 Sudoeste 17 Sur 0 -- -- 82
2018-10-08 02:00:00 18.5 10 Sur 13 Sudoeste 0 -- -- 80
2018-10-08 01:00:00 19 7 Sudoeste 21 Sudoeste 0 -- -- 78
2018-10-08 00:00:00 19.7 10 Sur 23 Sudoeste 0 -- -- 70
2018-10-07 23:00:00 20.7 19 Sudoeste 32 Sudoeste 0 -- -- 60
2018-10-07 22:00:00 22.2 25 Sudoeste 37 Sudoeste 0 -- -- 48
2018-10-07 21:00:00 24.3 29 Sudoeste 40 Sudoeste 0 -- -- 39
2018-10-07 20:00:00 26.9 28 Sudoeste 42 Sudoeste 0 -- -- 32
2018-10-07 19:00:00 30.4 23 Oeste 35 Oeste 0 -- -- 24
2018-10-07 18:00:00 31 22 Oeste 36 Oeste 0 -- -- 27
2018-10-07 17:00:00 31.3 18 Oeste 32 Sudoeste 0 -- -- 27
2018-10-07 16:00:00 30.7 22 Oeste 35 Oeste 0 -- -- 27
2018-10-07 15:00:00 30.1 19 Oeste 29 Oeste 0 -- -- 32
2018-10-07 14:00:00 28.5 13 Sudoeste 21 Sudoeste 0 -- -- 44
2018-10-07 13:00:00 26.2 11 Oeste 22 Oeste 0 -- -- 53
2018-10-07 12:00:00 24.2 6 Oeste 13 Sudoeste 0 -- -- 63
2018-10-07 11:00:00 21.9 5 Sudoeste 12 Sudoeste 0 -- -- 77
2018-10-07 10:00:00 20 3 Sur 11 Oeste 0 -- -- 85
2018-10-07 09:00:00 19 4 Sudoeste 12 Sudoeste 0 -- -- 88
2018-10-07 08:00:00 19.3 9 Oeste 19 Oeste 0 -- -- 88
2018-10-07 07:00:00 19.1 17 Sudoeste 23 Sudoeste 0 -- -- 87
2018-10-07 06:00:00 19.1 12 Sudoeste 19 Sudoeste 0 -- -- 85
2018-10-07 05:00:00 19.2 16 Sudoeste 25 Sudoeste 0 -- -- 85
2018-10-07 04:00:00 19.3 17 Sudoeste 21 Sudoeste 0 -- -- 84
2018-10-07 03:00:00 19.6 12 Sudoeste 18 Sudoeste 0 -- -- 77
2018-10-07 02:00:00 20.3 16 Sur 21 Sur 0 -- -- 70
2018-10-07 01:00:00 20.9 13 Sudoeste 23 Sur 0 -- -- 62
2018-10-07 00:00:00 22 12 Sudoeste 20 Sudoeste 0 -- -- 56
2018-10-06 23:00:00 24 12 Oeste 22 Oeste 0 -- -- 47
2018-10-06 22:00:00 25.4 19 Oeste 25 Oeste 0 -- -- 45
2018-10-06 21:00:00 26.5 17 Oeste 22 Oeste 0 -- -- 32
2018-10-06 20:00:00 28.6 18 Oeste 29 Sudoeste 0 -- -- 28
2018-10-06 19:00:00 31.5 14 Oeste 27 Oeste 0 -- -- 24
2018-10-06 18:00:00 32.3 15 Oeste 26 Oeste 0 -- -- 23
2018-10-06 17:00:00 32.5 9 Noroeste 22 Oeste 0 -- -- 22
2018-10-06 16:00:00 32.9 5 Sudoeste 15 Norte 0 -- -- 23
2018-10-06 15:00:00 31.2 5 Norte 14 Noroeste 0 -- -- 26
2018-10-06 14:00:00 30.1 6 Sur 12 Sur 0 -- -- 29
2018-10-06 13:00:00 28.6 6 Nordeste 14 Este 0 -- -- 33
2018-10-06 12:00:00 26.5 6 Este 14 Nordeste 0 -- -- 40
2018-10-06 11:00:00 23.1 6 Este 13 Este 0 -- -- 49
2018-10-06 10:00:00 19.1 5 Nordeste 12 Este 0 -- -- 61
2018-10-06 09:00:00 15.3 4 Nordeste 12 Este 0 -- -- 67
2018-10-06 08:00:00 15.7 8 Este 13 Este 0 -- -- 63
2018-10-06 07:00:00 15.4 6 Este 10 Nordeste 0 -- -- 61
2018-10-06 06:00:00 16.9 6 Nordeste 13 Nordeste 0 -- -- 60
2018-10-06 05:00:00 19.2 9 Sudeste 19 Este 0 -- -- 55
2018-10-06 04:00:00 18.4 8 Este 13 Sudeste 0 -- -- 52
2018-10-06 03:00:00 18.7 8 Este 13 Este 0 -- -- 49
2018-10-06 02:00:00 19.1 8 Este 12 Este 0 -- -- 49
2018-10-06 01:00:00 20.3 6 Este 10 Este 0 -- -- 47
2018-10-06 00:00:00 22.1 4 Este 11 Sur 0 -- -- 44
2018-10-05 23:00:00 23.3 10 Sur 17 Sur 0 -- -- 43
2018-10-05 22:00:00 24.7 10 Sur 23 Sudeste 0 -- -- 41
2018-10-05 21:00:00 25.9 12 Sudeste 24 Sudeste 0 -- -- 40
2018-10-05 20:00:00 28.4 12 Este 26 Sudeste 0 -- -- 33
2018-10-05 19:00:00 31.5 10 Este 23 Este 0 -- -- 26
2018-10-05 18:00:00 32.6 11 Este 25 Este 0 -- -- 23
2018-10-05 17:00:00 33.2 14 Este 27 Este 0 -- -- 22
2018-10-05 16:00:00 33 12 Este 25 Este 0 -- -- 22
2018-10-05 15:00:00 33.2 12 Este 28 Este 0 -- -- 23
2018-10-05 14:00:00 31.7 15 Este 28 Este 0 -- -- 25
2018-10-05 13:00:00 29.8 13 Este 28 Este 0 -- -- 27
2018-10-05 12:00:00 28.3 17 Este 26 Este 0 -- -- 30
2018-10-05 11:00:00 25.2 14 Este 27 Este 0 -- -- 34
2018-10-05 10:00:00 21.2 10 Este 17 Este 0 -- -- 42
2018-10-05 09:00:00 15.3 4 Nordeste 10 Este 0 -- -- 54
2018-10-05 08:00:00 14.8 6 Este 12 Nordeste 0 -- -- 55
2018-10-05 07:00:00 15.6 5 Nordeste 10 Nordeste 0 -- -- 52
2018-10-05 06:00:00 17 4 Nordeste 13 Sudeste 0 -- -- 46
2018-10-05 05:00:00 18.3 8 Sudeste 12 Sudeste 0 -- -- 42
2018-10-05 04:00:00 18.9 6 Sudeste 13 Este 0 -- -- 42
2018-10-05 03:00:00 19.3 7 Este 15 Este 0 -- -- 43
2018-10-05 02:00:00 19.7 8 Este 13 Este 0 -- -- 42
2018-10-05 01:00:00 20.7 7 Este 9 Este 0 -- -- 41
2018-10-05 00:00:00 22.1 7 Sudeste 18 Noroeste 0 -- -- 38
2018-10-04 23:00:00 23.4 9 Sudeste 21 Sudeste 0 -- -- 37
2018-10-04 22:00:00 24.5 13 Sudeste 23 Este 0 -- -- 35
2018-10-04 21:00:00 26 11 Sudeste 20 Este 0 -- -- 32
2018-10-04 20:00:00 29.1 11 Sudeste 19 Este 0 -- -- 26
2018-10-04 19:00:00 32 12 Sudeste 23 Sudeste 0 -- -- 21
2018-10-04 18:00:00 33.3 10 Este 22 Sudeste 0 -- -- 18
2018-10-04 17:00:00 33.9 7 Sudeste 22 Sudeste 0 -- -- 18
2018-10-04 16:00:00 33.8 6 Este 17 Sudeste 0 -- -- 19
2018-10-04 15:00:00 32.6 6 Nordeste 18 Sudeste 0 -- -- 22
2018-10-04 14:00:00 31.4 5 Sudeste 17 Sudeste 0 -- -- 22
2018-10-04 13:00:00 29.6 6 Este 15 Nordeste 0 -- -- 26
2018-10-04 12:00:00 27.5 7 Este 13 Este 0 -- -- 32
2018-10-04 11:00:00 23.7 7 Nordeste 13 Este 0 -- -- 40
2018-10-04 10:00:00 19.1 6 Este 10 Nordeste 0 -- -- 51
2018-10-04 09:00:00 16.2 8 Este 12 Este 0 -- -- 56
2018-10-04 08:00:00 17 7 Este 10 Este 0 -- -- 50
2018-10-04 07:00:00 18.5 7 Este 13 Sudeste 0 -- -- 46
2018-10-04 06:00:00 18.6 8 Sudeste 12 Sudeste 0 -- -- 50
2018-10-04 05:00:00 18.8 7 Sudeste 13 Sudeste 0 -- -- 52
2018-10-04 04:00:00 19.3 8 Sudeste 12 Sudeste 0 -- -- 56
2018-10-04 03:00:00 21 4 Sur 9 Sudoeste 0 -- -- 58
2018-10-04 02:00:00 21.2 6 Sudoeste 12 Sudoeste 0 -- -- 58
2018-10-04 01:00:00 21.3 8 Sudoeste 16 Sudoeste 0 -- -- 56
2018-10-04 00:00:00 21.2 14 Sudoeste 23 Sudoeste 0 -- -- 53
2018-10-03 23:00:00 22.6 9 Sudeste 17 Sudeste 0 -- -- 45
2018-10-03 22:00:00 23.9 9 Sudeste 17 Sudeste 0 -- -- 42
2018-10-03 21:00:00 25.8 10 Sudeste 21 Sudeste 0 -- -- 34
2018-10-03 20:00:00 28.3 10 Sudeste 19 Sudeste 0 -- -- 26
2018-10-03 19:00:00 31.3 9 Este 20 Sudeste 0 -- -- 26
2018-10-03 18:00:00 32.6 6 Este 18 Sudeste 0 -- -- 23
2018-10-03 17:00:00 32.8 6 Este 19 Nordeste 0 -- -- 26
2018-10-03 16:00:00 32.2 6 Este 22 Este 0 -- -- 27
2018-10-03 15:00:00 30.9 11 Este 30 Este 0 -- -- 28
2018-10-03 14:00:00 30.2 12 Este 23 Este 0 -- -- 30
2018-10-03 13:00:00 28.4 11 Este 26 Este 0 -- -- 37
2018-10-03 12:00:00 26.1 14 Este 23 Este 0 -- -- 47
2018-10-03 11:00:00 22.9 10 Este 23 Este 0 -- -- 58
2018-10-03 10:00:00 19.9 7 Este 16 Este 0 -- -- 72
2018-10-03 09:00:00 16.3 4 Nordeste 8 Este 0 -- -- 79
2018-10-03 08:00:00 16.1 5 Este 9 Este 0 -- -- 80
2018-10-03 07:00:00 17 6 Este 9 Este 0 -- -- 79
2018-10-03 06:00:00 17.5 6 Este 10 Este 0 -- -- 79
2018-10-03 05:00:00 19.3 5 Sur 13 Sudeste 0 -- -- 77
2018-10-03 04:00:00 18.9 9 Sur 16 Sur 0 -- -- 75
2018-10-03 03:00:00 18.7 9 Sur 16 Sudeste 0 -- -- 66
2018-10-03 02:00:00 19 4 Este 8 Nordeste 0 -- -- 44
2018-10-03 01:00:00 21 5 Noroeste 13 Sudoeste 0 -- -- 55
2018-10-03 00:00:00 22.7 7 Sudoeste 16 Sudoeste 0 -- -- 49
2018-10-02 23:00:00 23.7 13 Sur 22 Sudoeste 0 -- -- 30
2018-10-02 22:00:00 25.8 7 Nordeste 14 Norte 0 -- -- 13
2018-10-02 21:00:00 26.6 6 Nordeste 18 Nordeste 0 -- -- 17
2018-10-02 20:00:00 30.4 5 Nordeste 13 Nordeste 0 -- -- 17
2018-10-02 19:00:00 33.1 4 Norte 13 Norte 0 -- -- 16
2018-10-02 18:00:00 33.9 5 Nordeste 15 Noroeste 0 -- -- 16
2018-10-02 17:00:00 33.8 5 Este 15 Nordeste 0 -- -- 16
2018-10-02 16:00:00 33.4 8 Nordeste 20 Este 0 -- -- 15
2018-10-02 15:00:00 32.9 10 Nordeste 22 Nordeste 0 -- -- 15
2018-10-02 14:00:00 31.6 10 Este 25 Este 0 -- -- 17
2018-10-02 13:00:00 29.4 14 Nordeste 27 Este 0 -- -- 20
2018-10-02 12:00:00 27 12 Nordeste 34 Este 0 -- -- 22
2018-10-02 11:00:00 23.6 15 Nordeste 32 Nordeste 0 -- -- 28
2018-10-02 10:00:00 20.3 11 Nordeste 25 Este 0 -- -- 35
2018-10-02 09:00:00 16.8 6 Nordeste 17 Este 0 -- -- 51
2018-10-02 08:00:00 16.4 5 Nordeste 14 Este 0 -- -- 70
2018-10-02 07:00:00 17.4 5 Nordeste 8 Nordeste 0 -- -- 84
2018-10-02 06:00:00 18.3 3 Nordeste 8 Este 0 -- -- 80
2018-10-02 05:00:00 19.3 4 Este 10 Nordeste 0 -- -- 78
2018-10-02 04:00:00 20 5 Este 7 Este 0 -- -- 75
2018-10-02 03:00:00 20.3 5 Este 9 Este 0 -- -- 75
2018-10-02 02:00:00 21 5 Sur 17 Sudoeste 0 -- -- 73
2018-10-02 01:00:00 21.8 14 Sudoeste 23 Sudoeste 0 -- -- 72
2018-10-02 00:00:00 22.6 19 Sudoeste 28 Sudoeste 0 -- -- 71
2018-10-01 23:00:00 23.4 21 Sudoeste 28 Sudoeste 0 -- -- 69
2018-10-01 22:00:00 24.8 21 Sudoeste 32 Sudoeste 0 -- -- 60
2018-10-01 21:00:00 27.1 24 Sudoeste 31 Sudoeste 0 -- -- 55
2018-10-01 20:00:00 29.9 27 Sudoeste 36 Sudoeste 0 -- -- 45
2018-10-01 19:00:00 32.5 12 Noroeste 26 Oeste 0 -- -- 30
2018-10-01 18:00:00 33.7 6 Norte 18 Oeste 0 -- -- 29
2018-10-01 17:00:00 33.6 8 Noroeste 19 Noroeste 0 -- -- 30
2018-10-01 16:00:00 33.2 5 Norte 19 Oeste 0 -- -- 32
2018-10-01 15:00:00 31.7 9 Oeste 21 Oeste 0 -- -- 37
2018-10-01 14:00:00 30 11 Oeste 21 Oeste 0 -- -- 43
2018-10-01 13:00:00 28.1 10 Oeste 17 Oeste 0 -- -- 49
2018-10-01 12:00:00 26.5 8 Oeste 16 Oeste 0 -- -- 55
2018-10-01 11:00:00 24.1 8 Oeste 13 Oeste 0 -- -- 62
2018-10-01 10:00:00 20.9 4 Oeste 7 Oeste 0 -- -- 84
2018-10-01 09:00:00 19.3 4 Oeste 9 Sudoeste 0 -- -- 88
2018-10-01 08:00:00 19.1 8 Oeste 15 Sudoeste 0 -- -- 85
2018-10-01 07:00:00 19.2 11 Sudoeste 21 Sudoeste 0 -- -- 83
2018-10-01 06:00:00 19.4 13 Sudoeste 22 Sudoeste 0 -- -- 84
2018-10-01 05:00:00 19.8 15 Sur 19 Sur 0 -- -- 82
2018-10-01 04:00:00 20.2 13 Sudoeste 16 Sudoeste 0 -- -- 81
2018-10-01 03:00:00 20.8 9 Sudoeste 19 Sudoeste 0 -- -- 77
2018-10-01 02:00:00 21.4 14 Sudoeste 23 Sudoeste 0 -- -- 75
2018-10-01 01:00:00 21.9 14 Sudoeste 20 Sudoeste 0 -- -- 64
2018-10-01 00:00:00 22.7 15 Sudoeste 19 Sudoeste 0 -- -- 52
2018-09-30 23:00:00 24.1 10 Sudoeste 15 Oeste 0 -- -- 51
2018-09-30 22:00:00 25 12 Oeste 17 Oeste 0 -- -- 48
2018-09-30 21:00:00 27.1 13 Oeste 23 Oeste 0 -- -- 45
2018-09-30 20:00:00 29.1 15 Oeste 27 Oeste 0 -- -- 41
2018-09-30 19:00:00 31.2 20 Oeste 33 Oeste 0 -- -- 37
2018-09-30 18:00:00 32.5 11 Oeste 23 Oeste 0 -- -- 32
2018-09-30 17:00:00 32.7 7 Sur 17 Sudoeste 0 -- -- 35
2018-09-30 16:00:00 32.2 6 Sudoeste 14 Sudoeste 0 -- -- 37
2018-09-30 15:00:00 31.1 7 Sudeste 16 Sur 0 -- -- 41
2018-09-30 14:00:00 29.9 4 Oeste 16 Noroeste 0 -- -- 45
2018-09-30 13:00:00 27.6 5 Noroeste 13 Oeste 0 -- -- 52
2018-09-30 12:00:00 25.4 8 Noroeste 16 Noroeste 0 -- -- 60
2018-09-30 11:00:00 23.2 8 Noroeste 17 Oeste 0 -- -- 72
2018-09-30 10:00:00 21.6 10 Oeste 15 Oeste 0 -- -- 80
2018-09-30 09:00:00 19.5 11 Sudoeste 19 Sudoeste 0 -- -- 83
2018-09-30 08:00:00 19.5 6 Sudoeste 12 Sur 0 -- -- 76
2018-09-30 07:00:00 19.7 8 Sur 18 Sur 0 -- -- 78
2018-09-30 06:00:00 19.6 12 Sur 14 Sudoeste 0 -- -- 76
2018-09-30 05:00:00 20.1 11 Sur 15 Sur 0 -- -- 74
2018-09-30 04:00:00 20.4 14 Sur 21 Sur 0 -- -- 73
2018-09-30 03:00:00 21 18 Sur 24 Sur 0 -- -- 70
2018-09-30 02:00:00 21.4 15 Sur 19 Sur 0 -- -- 67
2018-09-30 01:00:00 22.1 14 Sur 17 Sur 0 -- -- 62
2018-09-30 00:00:00 23.9 10 Sudoeste 16 Sur 0 -- -- 48
2018-09-29 23:00:00 25.3 4 Noroeste 10 Oeste 0 -- -- 50
2018-09-29 22:00:00 25.9 6 Oeste 15 Oeste 0 -- -- 48
2018-09-29 21:00:00 27.5 11 Oeste 19 Sudoeste 0 -- -- 45
2018-09-29 20:00:00 30.1 6 Sudoeste 15 Sudoeste 0 -- -- 38
2018-09-29 19:00:00 31.8 4 Sur 16 Sudoeste 0 -- -- 35
2018-09-29 18:00:00 32.4 9 Oeste 17 Sudoeste 0 -- -- 35
2018-09-29 17:00:00 32.4 8 Sudoeste 18 Sudoeste 0 -- -- 35
2018-09-29 16:00:00 32.4 5 Sur 15 Nordeste 0 -- -- 35
2018-09-29 15:00:00 31.3 5 Este 17 Este 0 -- -- 37
2018-09-29 14:00:00 30.1 6 Sudeste 13 Este 0 -- -- 41
2018-09-29 13:00:00 28.3 5 Nordeste 14 Este 0 -- -- 48
2018-09-29 12:00:00 26.5 4 Sudeste 12 Este 0 -- -- 55
2018-09-29 11:00:00 24.2 5 Este 10 Este 0 -- -- 64
2018-09-29 10:00:00 21.6 3 Este 6 Este 0 -- -- 72
2018-09-29 09:00:00 19.3 4 Sudeste 6 Sur 0 -- -- 75
2018-09-29 08:00:00 19.4 5 Sur 11 Sur 0 -- -- 75
2018-09-29 07:00:00 19.6 7 Sur 10 Sur 0 -- -- 77
2018-09-29 06:00:00 20.1 6 Sur 12 Sur 0 -- -- 79
2018-09-29 05:00:00 20.1 8 Sur 17 Sudoeste 0 -- -- 77
2018-09-29 04:00:00 20.3 9 Sur 18 Sur 0 -- -- 75
2018-09-29 03:00:00 20.6 10 Sur 14 Sur 0 -- -- 71
2018-09-29 02:00:00 21 10 Sur 15 Sur 0 -- -- 65
2018-09-29 01:00:00 21.9 7 Sur 18 Sudeste 0 -- -- 61
2018-09-29 00:00:00 22.7 10 Sudeste 15 Sudeste 0 -- -- 59
2018-09-28 23:00:00 23.9 8 Sudeste 16 Sur 0 -- -- 55
2018-09-28 22:00:00 24.9 8 Sudeste 15 Sudeste 0 -- -- 52
2018-09-28 21:00:00 26.6 7 Sudeste 15 Sudeste 0 -- -- 48
2018-09-28 20:00:00 28.7 9 Sudeste 17 Este 0 -- -- 44
2018-09-28 19:00:00 30.9 6 Sudeste 18 Este 0 -- -- 39
2018-09-28 18:00:00 31.8 6 Este 20 Este 0 -- -- 38
2018-09-28 17:00:00 31.9 6 Este 22 Este 0 -- -- 38
2018-09-28 16:00:00 29.9 6 Este 22 Este 0 -- -- 43
2018-09-28 15:00:00 29.6 9 Este 26 Este 0 -- -- 44
2018-09-28 14:00:00 30.1 10 Este 22 Este 0 -- -- 45
2018-09-28 13:00:00 29 12 Este 23 Sudeste 0 -- -- 48
2018-09-28 12:00:00 27.6 12 Este 23 Este 0 -- -- 53
2018-09-28 11:00:00 25.6 15 Este 28 Sudeste 0 -- -- 58
2018-09-28 10:00:00 23.4 12 Este 21 Este 0 -- -- 67
2018-09-28 09:00:00 20.7 10 Este 17 Este 0 -- -- 74
2018-09-28 08:00:00 20.4 9 Este 15 Sudeste 0 -- -- 75
2018-09-28 07:00:00 20.2 10 Este 17 Sudeste 0 -- -- 75
2018-09-28 06:00:00 19.9 6 Este 13 Este 0 -- -- 72
2018-09-28 05:00:00 20 5 Este 9 Nordeste 0 -- -- 69
2018-09-28 04:00:00 20.9 5 Este 7 Este 0 -- -- 65
2018-09-28 03:00:00 21.3 3 Este 7 Este 0 -- -- 61
2018-09-28 02:00:00 22 6 Este 9 Este 0 -- -- 58
2018-09-28 01:00:00 22.7 3 Nordeste 9 Sudeste 0 -- -- 54
2018-09-28 00:00:00 23.7 8 Sudeste 14 Sur 0 -- -- 51
2018-09-27 23:00:00 24.3 7 Sur 17 Sur 0 -- -- 53
2018-09-27 22:00:00 25.4 8 Sur 18 Sur 0 -- -- 51
2018-09-27 21:00:00 26.8 9 Sur 21 Sur 0 -- -- 48
2018-09-27 20:00:00 29.2 10 Sur 24 Sur 0 -- -- 43
2018-09-27 19:00:00 31.7 8 Sur 22 Sur 0 -- -- 38
2018-09-27 18:00:00 32.1 7 Sudeste 19 Este 0 -- -- 36
2018-09-27 17:00:00 32.9 7 Sudeste 16 Sudeste 0 -- -- 35
2018-09-27 16:00:00 32.1 6 Nordeste 20 Este 0 -- -- 37
2018-09-27 15:00:00 31.8 6 Este 22 Sudeste 0 -- -- 39
2018-09-27 14:00:00 30.8 7 Este 22 Este 0 -- -- 41
2018-09-27 13:00:00 29.7 10 Sudeste 20 Sudeste 0 -- -- 45
2018-09-27 12:00:00 27.8 8 Este 15 Este 0 -- -- 52
2018-09-27 11:00:00 26.3 5 Nordeste 15 Este 0 -- -- 59
2018-09-27 10:00:00 23.7 7 Este 14 Este 0 -- -- 69
2018-09-27 09:00:00 20.6 4 Nordeste 11 Norte 0 -- -- 84
2018-09-27 08:00:00 20.2 3 Nordeste 9 Nordeste 0 -- -- 83
2018-09-27 07:00:00 20.6 5 Nordeste 10 Nordeste 0 -- -- 82
2018-09-27 06:00:00 20.8 6 Este 13 Este 0 -- -- 79
2018-09-27 05:00:00 21.3 6 Este 11 Este 0 -- -- 78
2018-09-27 04:00:00 22.2 6 Este 15 Este 0 -- -- 73
2018-09-27 03:00:00 23.2 8 Este 19 Este 0 -- -- 71
2018-09-27 02:00:00 23.7 8 Este 21 Este 0 -- -- 70
2018-09-27 01:00:00 24.2 10 Este 19 Sudeste 0 -- -- 67
2018-09-27 00:00:00 25 8 Este 22 Este 0 -- -- 62
2018-09-26 23:00:00 25.6 10 Este 20 Este 0 -- -- 56
2018-09-26 22:00:00 25.8 11 Sudeste 23 Sudeste 0 -- -- 54
2018-09-26 21:00:00 26.7 14 Sudeste 30 Este 0 -- -- 53
2018-09-26 20:00:00 28.4 17 Sudeste 32 Sudeste 0 -- -- 47
2018-09-26 19:00:00 30.8 17 Sudeste 34 Sudeste 0 -- -- 41
2018-09-26 18:00:00 32.4 15 Sudeste 31 Este 0 -- -- 38
2018-09-26 17:00:00 33.1 19 Este 36 Este 0 -- -- 37
2018-09-26 16:00:00 33.5 16 Sudeste 37 Sudeste 0 -- -- 36
2018-09-26 15:00:00 32.6 21 Sudeste 39 Sudeste 0 -- -- 38
2018-09-26 14:00:00 31.7 20 Sudeste 49 Sudeste 0 -- -- 42
2018-09-26 13:00:00 30.8 25 Sudeste 51 Sudeste 0 -- -- 43
2018-09-26 12:00:00 29.3 27 Sudeste 46 Este 0 -- -- 46
2018-09-26 11:00:00 27.7 24 Sudeste 42 Sudeste 0 -- -- 53
2018-09-26 10:00:00 25.7 19 Sudeste 36 Este 0 -- -- 58
2018-09-26 09:00:00 24.3 17 Este 26 Sudeste 0 -- -- 67
2018-09-26 08:00:00 23.2 11 Este 24 Este 0 -- -- 69
2018-09-26 07:00:00 23.3 9 Este 19 Sudeste 0 -- -- 65
2018-09-26 06:00:00 24 13 Sudeste 22 Sudeste 0 -- -- 62
2018-09-26 05:00:00 24.3 13 Sudeste 24 Sudeste 0 -- -- 61
2018-09-26 04:00:00 24.3 10 Sudeste 20 Este 0 -- -- 59
2018-09-26 03:00:00 24.5 9 Este 13 Este 0 -- -- 55
2018-09-26 02:00:00 24.8 7 Sudeste 12 Sudeste 0 -- -- 54
2018-09-26 01:00:00 25 7 Sudeste 14 Sudeste 0 -- -- 53
2018-09-26 00:00:00 25.9 8 Sudeste 17 Sudeste 0 -- -- 51
2018-09-25 23:00:00 26.8 12 Sudeste 21 Sudeste 0 -- -- 47
2018-09-25 22:00:00 28.3 10 Sudeste 26 Sudeste 0 -- -- 43
2018-09-25 21:00:00 30.1 14 Sudeste 24 Sudeste 0 -- -- 39
2018-09-25 20:00:00 33 14 Sudeste 25 Este 0 -- -- 34
2018-09-25 19:00:00 36.1 15 Sudeste 44 Este 0 -- -- 28
2018-09-25 18:00:00 37.5 6 Sudoeste 19 Sudoeste 0 -- -- 21
2018-09-25 17:00:00 37.4 9 Sudoeste 18 Oeste 0 -- -- 21
2018-09-25 16:00:00 37.1 17 Sudoeste 27 Sudoeste 0 -- -- 21
2018-09-25 15:00:00 36.7 8 Sudoeste 20 Sudoeste 0 -- -- 22
2018-09-25 14:00:00 36.1 9 Sudeste 21 Sur 0 -- -- 23
2018-09-25 13:00:00 34.7 8 Sur 19 Sudeste 0 -- -- 24
2018-09-25 12:00:00 32.9 13 Sudeste 27 Sudeste 0 -- -- 27
2018-09-25 11:00:00 30.4 13 Sudeste 23 Sudeste 0 -- -- 30
2018-09-25 10:00:00 26.1 6 Este 15 Este 0 -- -- 37
2018-09-25 09:00:00 21.3 4 Nordeste 10 Nordeste 0 -- -- 44
2018-09-25 08:00:00 22.4 5 Este 16 Sudeste 0 -- -- 38
2018-09-25 07:00:00 22.9 8 Este 12 Este 0 -- -- 37
2018-09-25 06:00:00 24.4 8 Sudeste 13 Sudeste 0 -- -- 33
2018-09-25 05:00:00 25.7 8 Sudeste 13 Sudeste 0 -- -- 39
2018-09-25 04:00:00 26.5 4 Noroeste 13 Oeste 0 -- -- 37
2018-09-25 03:00:00 26 6 Sudoeste 11 Sudoeste 0 -- -- 37
2018-09-25 02:00:00 26.4 8 Oeste 11 Sudoeste 0 -- -- 37
2018-09-25 01:00:00 26.6 8 Sur 12 Sur 0 -- -- 39
2018-09-25 00:00:00 27.3 10 Sur 14 Oeste 0 -- -- 37
2018-09-24 23:00:00 28.8 12 Sudoeste 25 Sur 0 -- -- 32
2018-09-24 22:00:00 30.7 10 Sudeste 18 Sudeste 0 -- -- 25
2018-09-24 21:00:00 32.4 7 Sudeste 19 Sur 0 -- -- 23
2018-09-24 20:00:00 35.2 10 Sur 19 Sudeste 0 -- -- 22
2018-09-24 19:00:00 38 5 Este 13 Este 0 -- -- 21
2018-09-24 18:00:00 38.2 6 Este 17 Este 0 -- -- 21
2018-09-24 17:00:00 38.6 10 Este 20 Este 0 -- -- 21
2018-09-24 16:00:00 38.3 11 Este 25 Este 0 -- -- 21
2018-09-24 15:00:00 37.7 8 Este 21 Este 0 -- -- 22
2018-09-24 14:00:00 36.3 8 Este 22 Este 0 -- -- 24
2018-09-24 13:00:00 34.8 9 Este 23 Este 0 -- -- 24
2018-09-24 12:00:00 33.2 7 Este 17 Este 0 -- -- 27
2018-09-24 11:00:00 29.6 7 Este 15 Este 0 -- -- 33
2018-09-24 10:00:00 25.2 8 Este 14 Este 0 -- -- 41
2018-09-24 09:00:00 21.6 7 Este 11 Este 0 -- -- 46
2018-09-24 08:00:00 21.5 7 Este 14 Este 0 -- -- 44
2018-09-24 07:00:00 23.8 8 Este 21 Sudeste 0 -- -- 40
2018-09-24 06:00:00 24.3 10 Sudeste 17 Sudeste 0 -- -- 37
2018-09-24 05:00:00 25.2 12 Sudeste 18 Sudeste 0 -- -- 33
2018-09-24 04:00:00 24.9 8 Sudeste 12 Sudeste 0 -- -- 34
2018-09-24 03:00:00 24.9 8 Este 12 Sudeste 0 -- -- 34
2018-09-24 02:00:00 24.7 9 Este 12 Este 0 -- -- 35
2018-09-24 01:00:00 25.8 6 Este 12 Sudeste 0 -- -- 32
2018-09-24 00:00:00 27.5 8 Sudeste 14 Sudeste 0 -- -- 29
2018-09-23 23:00:00 28.5 7 Sudeste 14 Sudeste 0 -- -- 27
2018-09-23 22:00:00 29.9 7 Sur 19 Sudeste 0 -- -- 26
2018-09-23 21:00:00 31.5 6 Sudeste 16 Sudeste 0 -- -- 24
2018-09-23 20:00:00 34.6 9 Sur 18 Sudeste 0 -- -- 21
2018-09-23 19:00:00 37.3 8 Este 16 Este 0 -- -- 20
2018-09-23 18:00:00 37.8 9 Sudeste 18 Sudeste 0 -- -- 20
2018-09-23 17:00:00 38.3 11 Este 26 Este 0 -- -- 21
2018-09-23 16:00:00 37.9 7 Este 20 Este 0 -- -- 22
2018-09-23 15:00:00 37.3 9 Este 25 Este 0 -- -- 24
2018-09-23 14:00:00 35.5 8 Nordeste 22 Este 0 -- -- 27
2018-09-23 13:00:00 34.1 10 Este 22 Este 0 -- -- 29
2018-09-23 12:00:00 32.4 12 Este 24 Este 0 -- -- 34
2018-09-23 11:00:00 28.7 9 Este 18 Este 0 -- -- 38
2018-09-23 10:00:00 24.9 6 Nordeste 14 Nordeste 0 -- -- 41
2018-09-23 09:00:00 21.2 8 Este 13 Este 0 -- -- 49
2018-09-23 08:00:00 21.2 5 Este 10 Este 0 -- -- 45
2018-09-23 07:00:00 22.4 5 Este 15 Este 0 -- -- 40
2018-09-23 06:00:00 24.2 10 Este 15 Sudeste 0 -- -- 36
2018-09-23 05:00:00 23.6 9 Este 15 Sudeste 0 -- -- 34
2018-09-23 04:00:00 24.5 8 Este 12 Este 0 -- -- 32
2018-09-23 03:00:00 25.4 6 Este 10 Este 0 -- -- 34
2018-09-23 02:00:00 26.1 6 Sudeste 9 Sudeste 0 -- -- 35
2018-09-23 01:00:00 26.5 7 Sudeste 10 Este 0 -- -- 36
2018-09-23 00:00:00 27.3 6 Sudeste 15 Sudeste 0 -- -- 35
2018-09-22 23:00:00 28.1 9 Sudeste 15 Sudeste 0 -- -- 34
2018-09-22 22:00:00 29.3 7 Sudeste 16 Sudeste 0 -- -- 31
2018-09-22 21:00:00 31.1 8 Sur 18 Sur 0 -- -- 29
2018-09-22 20:00:00 33.5 12 Sur 24 Sur 0 -- -- 25
2018-09-22 19:00:00 36.4 12 Sur 20 Sur 0 -- -- 26
2018-09-22 18:00:00 37.8 9 Sudeste 22 Este 0 -- -- 23
2018-09-22 17:00:00 37.9 8 Sudeste 21 Sudeste 0 -- -- 23
2018-09-22 16:00:00 38.1 10 Este 24 Este 0 -- -- 23
2018-09-22 15:00:00 37.1 8 Nordeste 20 Este 0 -- -- 26
2018-09-22 14:00:00 35.9 9 Este 21 Sudeste 0 -- -- 27
2018-09-22 13:00:00 34.8 8 Este 22 Sudeste 0 -- -- 29
2018-09-22 12:00:00 32.7 9 Este 18 Este 0 -- -- 32
2018-09-22 11:00:00 28.6 8 Este 19 Este 0 -- -- 40
2018-09-22 10:00:00 24.6 7 Nordeste 15 Este 0 -- -- 49
2018-09-22 09:00:00 21 8 Este 12 Este 0 -- -- 62
2018-09-22 08:00:00 20.6 5 Nordeste 10 Nordeste 0 -- -- 64
2018-09-22 07:00:00 21.5 6 Este 9 Este 0 -- -- 61
2018-09-22 06:00:00 22.3 4 Este 6 Este 0 -- -- 62
2018-09-22 05:00:00 23.3 0 Calma 12 Sudoeste 0 -- -- 57
2018-09-22 04:00:00 23.7 11 Sudoeste 21 Sur 0 -- -- 56
2018-09-22 03:00:00 24.3 15 Sur 18 Sur 0 -- -- 53
2018-09-22 02:00:00 24.9 12 Sudoeste 19 Sur 0 -- -- 48
2018-09-22 01:00:00 25.9 11 Sur 17 Sur 0 -- -- 40
2018-09-22 00:00:00 27.5 5 Sudeste 13 Sudeste 0 -- -- 32